Time;durP1;ratioP1;P1;durP2;ratioP2;P2;SDS_P1;SDS_P2;PMS_P1;PMS_P2;Temp;Humidity;BMP_temperature;BMP_pressure;BME280_temperature;BME280_humidity;BME280_pressure;Samples;Min_cycle;Max_cycle;Signal;HPM_P1;HPM_P2
2022/09/25 00:01:23;;;;;;;52.70;21.20;;;;;;;14.92;100.00;97573.69;4939497;28;20062;-54
2022/09/25 00:03:48;;;;;;;57.30;22.58;;;;;;;14.50;100.00;97570.25;4939849;28;20027;-54
2022/09/25 00:06:17;;;;;;;57.80;21.25;;;;;;;14.46;100.00;97568.75;4938406;28;20035;-54
2022/09/25 00:08:43;;;;;;;53.92;20.90;;;;;;;14.57;100.00;97570.69;4937170;29;20031;-53
2022/09/25 00:11:14;;;;;;;54.95;19.90;;;;;;;14.70;100.00;97571.59;4939386;28;20039;-54
2022/09/25 00:13:41;;;;;;;42.70;14.05;;;;;;;15.26;100.00;97562.75;4938964;29;20713;-54
2022/09/25 00:16:10;;;;;;;63.15;20.63;;;;;;;14.71;100.00;97556.72;4939405;28;20043;-55
2022/09/25 00:21:20;;;;;;;32.17;10.18;;;;;;;15.49;100.00;97567.25;4940801;28;20136;-53
2022/09/25 00:23:46;;;;;;;42.25;15.93;;;;;;;14.99;100.00;97566.25;4940756;28;20119;-54
2022/09/25 00:26:14;;;;;;;55.15;16.60;;;;;;;14.74;100.00;97565.25;4939088;28;20049;-54
2022/09/25 00:28:41;;;;;;;54.97;18.50;;;;;;;14.99;100.00;97566.25;4939650;29;20027;-53
2022/09/25 00:31:08;;;;;;;47.78;16.35;;;;;;;15.05;100.00;97568.47;4938387;28;20040;-54
2022/09/25 00:33:35;;;;;;;47.78;19.83;;;;;;;14.57;100.00;97566.31;4939197;29;20027;-54
2022/09/25 00:36:06;;;;;;;48.60;16.05;;;;;;;15.30;100.00;97574.72;4936879;28;20062;-57
2022/09/25 00:38:33;;;;;;;48.30;13.27;;;;;;;15.36;100.00;97562.00;4936236;28;20024;-56
2022/09/25 00:40:58;;;;;;;35.38;10.65;;;;;;;15.27;100.00;97560.00;4938528;28;20058;-54
2022/09/25 00:43:33;;;;;;;48.67;15.60;;;;;;;14.84;100.00;97560.22;4939106;28;20035;-55
2022/09/25 00:46:00;;;;;;;47.72;16.42;;;;;;;14.98;100.00;97564.56;4940245;28;20038;-54
2022/09/25 00:48:26;;;;;;;56.17;17.67;;;;;;;14.64;100.00;97551.84;4937591;29;20062;-54
2022/09/25 00:50:56;;;;;;;42.05;17.33;;;;;;;14.46;100.00;97564.34;4938686;28;20737;-53
2022/09/25 00:53:29;;;;;;;36.63;15.00;;;;;;;14.68;100.00;97562.16;4939255;29;20664;-56
2022/09/25 00:55:56;;;;;;;41.35;14.40;;;;;;;14.91;100.00;97550.16;4935621;28;20099;-53
2022/09/25 00:58:24;;;;;;;36.15;11.63;;;;;;;15.11;100.00;97548.81;4921213;29;20027;-54
2022/09/25 01:00:50;;;;;;;43.85;17.67;;;;;;;14.48;100.00;97537.16;4926184;28;20063;-55
2022/09/25 01:03:18;;;;;;;50.88;19.63;;;;;;;14.26;100.00;97535.91;4939856;28;20031;-53
2022/09/25 01:05:44;;;;;;;55.33;14.80;;;;;;;14.73;100.00;97550.41;4938995;28;20034;-55
2022/09/25 01:08:17;;;;;;;57.83;19.55;;;;;;;14.30;100.00;97541.78;4939491;29;20623;-54
2022/09/25 01:10:42;;;;;;;49.00;17.20;;;;;;;14.41;100.00;97544.56;4938002;28;20046;-56
2022/09/25 01:13:09;;;;;;;39.95;13.48;;;;;;;14.88;100.00;97545.13;4939589;29;20031;-56
2022/09/25 01:15:56;;;;;;;44.00;14.85;;;;;;;14.80;100.00;97541.19;4938383;28;20044;-57
2022/09/25 01:18:40;;;;;;;52.75;17.67;;;;;;;14.16;100.00;97534.81;4935439;29;20777;-55
2022/09/25 01:21:12;;;;;;;37.63;10.90;;;;;;;15.14;100.00;97546.84;4937577;28;20034;-57
2022/09/25 01:24:08;;;;;;;47.57;14.37;;;;;;;14.61;100.00;97536.31;4939069;29;20031;-56
2022/09/25 01:27:04;;;;;;;62.42;19.23;;;;;;;13.86;100.00;97538.41;4937892;28;20028;-54
2022/09/25 01:29:35;;;;;;;52.13;18.27;;;;;;;13.86;100.00;97538.41;4938484;29;20038;-54
2022/09/25 01:32:19;;;;;;;59.47;19.85;;;;;;;13.79;100.00;97537.09;4939103;28;20032;-56
2022/09/25 01:35:03;;;;;;;50.55;18.88;;;;;;;13.97;100.00;97542.97;4938133;28;20038;-54
2022/09/25 01:37:41;;;;;;;43.22;14.88;;;;;;;14.34;100.00;97538.91;4937542;28;20047;-54
2022/09/25 01:40:15;;;;;;;54.08;16.52;;;;;;;14.26;100.00;97535.91;4938418;28;20098;-54
2022/09/25 01:42:56;;;;;;;47.97;15.93;;;;;;;14.42;100.00;97533.16;4940178;29;20025;-55
2022/09/25 01:45:35;;;;;;;44.78;14.57;;;;;;;14.43;100.00;97535.69;4938241;28;20035;-55
2022/09/25 01:48:02;;;;;;;38.15;13.95;;;;;;;14.31;100.00;97527.75;4937937;28;20087;-54
2022/09/25 01:50:38;;;;;;;49.30;17.30;;;;;;;14.04;100.00;97531.16;4936366;28;20587;-54
2022/09/25 01:53:10;;;;;;;41.20;12.32;;;;;;;14.27;100.00;97532.34;4938228;28;20057;-54
2022/09/25 01:55:45;;;;;;;53.30;19.77;;;;;;;13.57;100.00;97527.91;4938650;28;20035;-55
2022/09/25 01:58:18;;;;;;;51.22;16.48;;;;;;;14.01;100.00;97528.75;4938043;29;20460;-55
2022/09/25 02:00:53;;;;;;;40.80;11.13;;;;;;;14.47;100.00;97525.84;4936655;28;20512;-56
2022/09/25 02:03:47;;;;;;;42.15;13.80;;;;;;;14.64;100.00;97524.75;4939708;29;20043;-54
2022/09/25 02:06:18;;;;;;;41.58;12.57;;;;;;;14.61;100.00;97519.72;4936400;28;20070;-54
2022/09/25 02:08:56;;;;;;;44.42;13.75;;;;;;;14.18;100.00;97511.94;4937755;29;20066;-53
2022/09/25 02:11:28;;;;;;;52.30;19.35;;;;;;;13.58;100.00;97513.91;4937692;28;20106;-56
2022/09/25 02:14:01;;;;;;;48.72;18.85;;;;;;;13.74;100.00;97518.19;4939427;29;20042;-54
2022/09/25 02:16:34;;;;;;;47.55;16.40;;;;;;;13.84;100.00;97524.53;4937044;28;20039;-54
2022/09/25 02:21:52;;;;;;;45.63;10.82;;;;;;;14.69;100.00;97527.94;4935623;28;20042;-56
2022/09/25 02:24:23;;;;;;;35.90;13.60;;;;;;;14.18;100.00;97517.19;4939869;29;20126;-55
2022/09/25 02:26:49;;;;;;;55.28;18.85;;;;;;;13.77;100.00;97503.13;4937090;28;20759;-56
2022/09/25 02:29:15;;;;;;;48.72;17.48;;;;;;;14.12;100.00;97509.72;4936652;29;20031;-54
2022/09/25 02:31:52;;;;;;;54.55;17.55;;;;;;;13.98;100.00;97506.16;4935960;28;20382;-54
2022/09/25 02:34:18;;;;;;;47.28;17.25;;;;;;;13.98;100.00;97511.41;4937914;28;20031;-54
2022/09/25 02:36:43;;;;;;;66.30;18.08;;;;;;;14.15;100.00;97513.00;4937975;28;20956;-53
2022/09/25 02:39:12;;;;;;;40.20;10.88;;;;;;;14.64;100.00;97503.78;4938031;28;20031;-54
2022/09/25 02:42:05;;;;;;;40.47;15.70;;;;;;;14.37;100.00;97507.22;4937528;28;20131;-54
2022/09/25 02:44:49;;;;;;;;;;;;;;;13.78;100.00;97503.97;4939124;29;20035;-54
2022/09/25 02:47:50;;;;;;;43.50;17.02;;;;;;;13.49;100.00;97503.94;4938639;28;19926;-53
2022/09/25 02:50:28;;;;;;;39.80;12.95;;;;;;;13.90;100.00;97510.22;4934899;28;20039;-53
2022/09/25 02:53:25;;;;;;;44.20;15.15;;;;;;;14.10;100.00;97515.06;4937744;29;20027;-54
2022/09/25 02:55:58;;;;;;;42.90;13.20;;;;;;;14.42;100.00;97515.63;4938106;28;20564;-53
2022/09/25 02:58:35;;;;;;;38.90;12.38;;;;;;;14.24;100.00;97514.19;4937439;28;20098;-54
2022/09/25 03:01:04;;;;;;;39.08;11.48;;;;;;;14.53;100.00;97524.59;4936442;28;20126;-55
2022/09/25 03:03:32;;;;;;;44.28;16.98;;;;;;;13.91;100.00;97519.75;4938957;28;20066;-55
2022/09/25 03:05:58;;;;;;;48.47;15.50;;;;;;;14.00;100.00;97519.19;4941159;28;20127;-53
2022/09/25 03:08:38;;;;;;;53.25;17.77;;;;;;;13.90;100.00;97523.34;4941170;29;20090;-55
2022/09/25 03:11:10;;;;;;;41.10;15.50;;;;;;;13.66;100.00;97527.38;4956036;28;20106;-53
2022/09/25 03:13:36;;;;;;;53.95;16.05;;;;;;;13.73;100.00;97527.84;4940298;29;20019;-55
2022/09/25 03:16:06;;;;;;;52.40;17.92;;;;;;;13.81;100.00;97519.50;4941521;28;20035;-56
2022/09/25 03:18:32;;;;;;;51.88;18.65;;;;;;;13.80;100.00;97523.03;4940008;29;20035;-54
2022/09/25 03:20:58;;;;;;;46.33;15.75;;;;;;;14.03;100.00;97525.09;4940304;28;20039;-54
2022/09/25 03:23:23;;;;;;;48.95;13.77;;;;;;;14.15;100.00;97520.00;4940577;28;20109;-53
2022/09/25 03:25:49;;;;;;;46.33;16.10;;;;;;;14.03;100.00;97530.34;4942960;28;20684;-55
2022/09/25 03:28:14;;;;;;;47.40;17.42;;;;;;;13.94;100.00;97528.28;4941227;29;20019;-55
2022/09/25 03:30:40;;;;;;;49.33;17.55;;;;;;;13.79;100.00;97527.47;4941553;28;20038;-53
2022/09/25 03:33:10;;;;;;;46.90;17.15;;;;;;;13.48;100.00;97523.25;4941556;29;20210;-55
2022/09/25 03:35:36;;;;;;;53.10;18.38;;;;;;;13.65;100.00;97525.66;4939607;28;20067;-57
2022/09/25 03:38:03;;;;;;;41.72;16.42;;;;;;;13.67;100.00;97518.59;4940463;29;20026;-54
2022/09/25 03:40:28;;;;;;;44.20;15.02;;;;;;;13.68;100.00;97520.25;4939869;28;20039;-55
2022/09/25 03:42:53;;;;;;;50.30;16.63;;;;;;;13.84;100.00;97524.53;4941612;29;20076;-56
2022/09/25 03:45:19;;;;;;;40.58;14.85;;;;;;;14.17;100.00;97520.75;4940039;28;20034;-56
2022/09/25 03:47:44;;;;;;;48.13;15.45;;;;;;;14.24;100.00;97515.03;4940711;29;20146;-57
2022/09/25 03:50:09;;;;;;;42.83;15.43;;;;;;;14.06;100.00;97519.66;4938974;28;20593;-53
2022/09/25 03:52:35;;;;;;;40.95;14.88;;;;;;;13.87;100.00;97519.09;4941610;28;20572;-54
2022/09/25 03:55:01;;;;;;;38.20;11.85;;;;;;;13.83;100.00;97512.38;4942661;29;20042;-55
2022/09/25 03:57:26;;;;;;;52.47;17.27;;;;;;;14.21;100.00;97523.09;4939804;28;20042;-54
2022/09/25 03:59:51;;;;;;;55.03;17.10;;;;;;;13.34;100.00;97516.19;4939793;28;20035;-53
2022/09/25 04:02:17;;;;;;;50.30;14.70;;;;;;;13.50;100.00;97521.38;4939088;28;20089;-54
2022/09/25 04:04:44;;;;;;;40.97;12.88;;;;;;;13.79;100.00;97518.75;4940759;28;20041;-57
2022/09/25 04:07:09;;;;;;;47.15;16.60;;;;;;;13.20;100.00;97519.63;4940681;28;20050;-54
2022/09/25 04:09:34;;;;;;;49.38;13.27;;;;;;;13.77;100.00;97520.63;4941614;29;20035;-55
2022/09/25 04:12:00;;;;;;;49.47;15.52;;;;;;;13.61;100.00;97508.44;4940546;28;20134;-55
2022/09/25 04:14:25;;;;;;;51.72;16.83;;;;;;;13.33;100.00;97516.31;4940043;28;20031;-53
2022/09/25 04:16:51;;;;;;;49.47;17.45;;;;;;;13.33;100.00;97509.28;4936595;28;20040;-55
2022/09/25 04:19:16;;;;;;;52.38;17.27;;;;;;;13.09;100.00;97501.09;4940784;29;20027;-56
2022/09/25 04:21:41;;;;;;;45.35;15.63;;;;;;;13.40;100.00;97505.38;4941656;28;20043;-54
2022/09/25 04:26:52;;;;;;;48.70;14.90;;;;;;;13.28;100.00;97501.66;4938307;28;20043;-53
2022/09/25 04:29:18;;;;;;;52.35;13.32;;;;;;;13.67;100.00;97492.38;4938564;29;20709;-55
2022/09/25 04:33:44;;;;;;;47.80;17.58;;;;;;;13.04;100.00;97505.75;4939585;28;20089;-55
2022/09/25 04:34:29;;;;;;;41.00;14.32;;;;;;;13.50;100.00;97508.28;4940268;29;20023;-53
2022/09/25 04:36:55;;;;;;;47.72;14.13;;;;;;;13.91;100.00;97497.00;4940004;28;20051;-55
2022/09/25 04:39:20;;;;;;;57.53;15.82;;;;;;;13.58;100.00;97498.19;4939687;29;20034;-54
2022/09/25 04:41:45;;;;;;;46.28;14.63;;;;;;;13.62;100.00;97499.66;4939535;28;20547;-53
2022/09/25 04:44:11;;;;;;;47.60;15.32;;;;;;;13.74;100.00;97490.19;4937307;28;20028;-55
2022/09/25 04:46:37;;;;;;;60.53;14.70;;;;;;;13.63;100.00;97488.22;4937009;28;20078;-54
2022/09/25 04:49:02;;;;;;;48.47;16.60;;;;;;;13.18;100.00;97495.31;4939877;28;20896;-53
2022/09/25 04:51:28;;;;;;;55.22;15.05;;;;;;;13.57;100.00;97501.72;4937897;28;20044;-53
2022/09/25 04:53:55;;;;;;;38.40;11.73;;;;;;;13.91;100.00;97504.88;4940677;28;20027;-55
2022/09/25 04:56:20;;;;;;;45.00;14.95;;;;;;;13.28;100.00;97501.66;4938561;28;20737;-53
2022/09/25 04:58:48;;;;;;;39.35;12.57;;;;;;;13.42;100.00;97513.16;4938546;29;20039;-56
2022/09/25 05:01:15;;;;;;;43.17;14.65;;;;;;;13.58;100.00;97508.66;4937552;28;20028;-53
2022/09/25 05:03:40;;;;;;;48.00;15.52;;;;;;;13.67;100.00;97513.34;4939630;28;20698;-53
2022/09/25 05:06:05;;;;;;;45.05;15.48;;;;;;;13.26;100.00;97510.56;4940799;28;20041;-55
2022/09/25 05:08:31;;;;;;;46.67;16.17;;;;;;;13.74;100.00;97507.72;4939868;28;20031;-54
2022/09/25 05:10:56;;;;;;;42.83;14.15;;;;;;;13.76;100.00;97503.22;4939320;28;20043;-54
2022/09/25 05:13:22;;;;;;;42.05;11.65;;;;;;;14.21;100.00;97498.66;4940187;28;20035;-54
2022/09/25 05:15:48;;;;;;;42.83;13.70;;;;;;;13.57;100.00;97488.63;4934421;28;20039;-56
2022/09/25 05:18:19;;;;;;;42.28;12.93;;;;;;;13.57;100.00;97503.50;4938010;29;20740;-56
2022/09/25 05:20:45;;;;;;;54.73;16.23;;;;;;;13.48;100.00;97502.28;4938871;28;20042;-56
2022/09/25 05:23:10;;;;;;;36.13;9.30;;;;;;;14.25;100.00;97497.50;4939842;29;20038;-53
2022/09/25 05:25:36;;;;;;;39.90;11.13;;;;;;;14.20;100.00;97482.06;4938802;28;20229;-54
2022/09/25 05:28:02;;;;;;;47.90;15.23;;;;;;;13.30;100.00;97483.25;4936424;28;20043;-54
2022/09/25 05:30:30;;;;;;;48.85;15.65;;;;;;;14.06;100.00;97477.69;4938139;28;20046;-55
2022/09/25 05:32:58;;;;;;;48.92;15.35;;;;;;;13.17;100.00;97477.91;4937255;28;20174;-56
2022/09/25 05:35:26;;;;;;;32.90;11.13;;;;;;;13.95;100.00;97485.41;4938349;28;20143;-56
2022/09/25 05:37:52;;;;;;;38.58;12.68;;;;;;;14.02;100.00;97488.47;4938031;29;20436;-54
2022/09/25 05:40:19;;;;;;;35.90;10.65;;;;;;;13.89;100.00;97496.25;4939533;28;20035;-53
2022/09/25 05:42:46;;;;;;;39.65;13.75;;;;;;;13.76;100.00;97497.97;4939823;28;20027;-55
2022/09/25 05:45:13;;;;;;;43.70;12.82;;;;;;;13.72;100.00;97499.09;4938312;28;20042;-55
2022/09/25 05:47:40;;;;;;;49.80;16.15;;;;;;;13.41;100.00;97506.22;4938691;29;20102;-54
2022/09/25 05:50:08;;;;;;;41.53;14.23;;;;;;;14.35;100.00;97503.84;4938162;29;20031;-54
2022/09/25 05:52:34;;;;;;;34.35;12.25;;;;;;;14.15;100.00;97507.75;4936827;29;20042;-54
2022/09/25 05:55:02;;;;;;;47.53;13.77;;;;;;;13.87;100.00;97498.97;4938570;29;20039;-54
2022/09/25 05:57:29;;;;;;;44.60;14.18;;;;;;;14.08;100.00;97499.44;4937028;28;20043;-57
2022/09/25 05:59:55;;;;;;;35.88;12.50;;;;;;;14.53;100.00;97493.09;4937519;29;20066;-55
2022/09/25 06:02:20;;;;;;;46.13;14.55;;;;;;;14.23;100.00;97488.91;4937514;28;20623;-54
2022/09/25 06:04:45;;;;;;;36.85;14.32;;;;;;;14.31;100.00;97485.78;4937707;29;20034;-54
2022/09/25 06:07:11;;;;;;;38.65;14.13;;;;;;;14.73;100.00;97486.59;4938253;28;20039;-55
2022/09/25 06:09:36;;;;;;;43.67;14.27;;;;;;;15.13;100.00;97483.91;4936587;28;20604;-54
2022/09/25 06:12:02;;;;;;;40.88;14.00;;;;;;;15.20;100.00;97478.16;4937869;28;20105;-54
2022/09/25 06:14:29;;;;;;;48.05;15.68;;;;;;;14.98;100.00;97480.50;4935378;29;20019;-53
2022/09/25 06:16:54;;;;;;;40.50;14.00;;;;;;;14.74;100.00;97486.50;4936880;28;20039;-54
2022/09/25 06:19:19;;;;;;;36.38;12.95;;;;;;;15.48;100.00;97489.38;4937718;28;20035;-55
2022/09/25 06:21:46;;;;;;;41.92;13.80;;;;;;;15.34;100.00;97482.44;4936353;28;20736;-55
2022/09/25 06:24:12;;;;;;;44.25;13.50;;;;;;;15.55;100.00;97488.03;4938644;29;20035;-57
2022/09/25 06:26:38;;;;;;;59.47;14.77;;;;;;;15.12;100.00;97487.47;4937136;28;20098;-56
2022/09/25 06:29:05;;;;;;;43.92;13.68;;;;;;;15.13;100.00;97494.44;4938639;29;20034;-55
2022/09/25 06:31:31;;;;;;;42.10;14.30;;;;;;;15.26;100.00;97483.94;4935213;28;20513;-56
2022/09/25 06:33:56;;;;;;;38.97;13.82;;;;;;;15.27;100.00;97491.69;4934373;29;20038;-56
2022/09/25 06:36:22;;;;;;;42.00;14.90;;;;;;;15.61;100.00;97486.75;4936936;28;20070;-56
2022/09/25 06:38:48;;;;;;;46.80;15.48;;;;;;;15.34;100.00;97492.13;4935691;28;20038;-55
2022/09/25 06:41:13;;;;;;;42.90;14.75;;;;;;;15.40;100.00;97491.69;4937364;28;20039;-57
2022/09/25 06:43:38;;;;;;;49.13;15.52;;;;;;;15.46;100.00;97486.03;4937514;29;20046;-56
2022/09/25 06:46:04;;;;;;;46.30;15.45;;;;;;;15.39;100.00;97484.75;4937227;28;20039;-55
2022/09/25 06:48:29;;;;;;;52.50;17.83;;;;;;;15.64;100.00;97483.06;4937889;28;20031;-53
2022/09/25 06:50:58;;;;;;;47.25;16.48;;;;;;;15.63;100.00;97482.22;4937406;28;20039;-56
2022/09/25 06:53:24;;;;;;;40.67;14.82;;;;;;;15.95;100.00;97482.63;4940064;28;20039;-55
2022/09/25 06:55:50;;;;;;;46.13;14.40;;;;;;;15.93;100.00;97491.56;4938118;28;20036;-55
2022/09/25 06:58:18;;;;;;;46.83;15.15;;;;;;;15.97;100.00;97485.97;4936864;29;20058;-55
2022/09/25 07:00:52;;;;;;;41.00;14.18;;;;;;;15.83;100.00;97478.22;4934356;28;20090;-55
2022/09/25 07:06:04;;;;;;;48.45;15.85;;;;;;;16.15;100.00;97498.75;4937131;28;20042;-55
2022/09/25 07:08:30;;;;;;;43.00;15.65;;;;;;;15.78;100.00;97485.59;4936522;29;20090;-55
2022/09/25 07:10:57;;;;;;;42.78;13.82;;;;;;;16.07;100.00;97490.59;4939028;28;20091;-54
2022/09/25 07:13:25;;;;;;;49.67;15.55;;;;;;;15.71;100.00;97490.41;4938822;29;20023;-55
2022/09/25 07:15:51;;;;;;;44.58;14.25;;;;;;;15.41;100.00;97498.63;4939006;28;20039;-53
2022/09/25 07:18:17;;;;;;;38.88;13.32;;;;;;;15.83;100.00;97499.25;4937274;28;20054;-55
2022/09/25 07:20:45;;;;;;;38.85;14.05;;;;;;;15.91;100.00;97494.28;4938518;28;20541;-57
2022/09/25 07:23:12;;;;;;;39.17;14.05;;;;;;;16.20;100.00;97488.75;4939674;29;20027;-57
2022/09/25 07:25:37;;;;;;;40.40;14.05;;;;;;;15.71;100.00;97497.44;4938148;28;20031;-54
2022/09/25 07:28:02;;;;;;;36.92;13.40;;;;;;;15.60;100.00;97509.56;4938055;28;20042;-55
2022/09/25 07:30:30;;;;;;;44.83;15.02;;;;;;;16.03;100.00;97508.38;4936556;28;20109;-53
2022/09/25 07:32:56;;;;;;;38.72;14.20;;;;;;;16.21;100.00;97502.75;4938910;29;20020;-58
2022/09/25 07:35:22;;;;;;;46.17;14.30;;;;;;;15.61;100.00;97494.63;4938493;28;20034;-55
2022/09/25 07:37:47;;;;;;;42.40;13.65;;;;;;;15.48;100.00;97499.06;4939065;28;20023;-56
2022/09/25 07:40:13;;;;;;;38.85;12.57;;;;;;;15.55;100.00;97500.28;4938715;28;20038;-55
2022/09/25 07:42:39;;;;;;;40.90;14.00;;;;;;;15.94;100.00;97496.72;4938805;29;20031;-55
2022/09/25 07:45:05;;;;;;;39.67;14.48;;;;;;;15.92;100.00;97505.66;4938233;28;20543;-56
2022/09/25 07:47:30;;;;;;;30.83;11.77;;;;;;;16.44;100.00;97495.81;4938418;29;20034;-56
2022/09/25 07:49:57;;;;;;;37.67;12.88;;;;;;;16.29;100.00;97492.50;4939005;28;20042;-54
2022/09/25 07:52:22;;;;;;;36.40;13.15;;;;;;;15.59;100.00;97496.53;4937708;28;20536;-56
2022/09/25 07:54:48;;;;;;;46.58;14.23;;;;;;;15.66;100.00;97503.03;4940730;29;20074;-56
2022/09/25 07:57:14;;;;;;;40.53;14.23;;;;;;;16.13;100.00;97501.50;4942337;28;20667;-53
2022/09/25 07:59:39;;;;;;;43.35;13.52;;;;;;;16.37;100.00;97493.63;4941482;29;20035;-55
2022/09/25 08:02:05;;;;;;;41.88;13.35;;;;;;;16.09;100.00;97504.47;4942221;28;20031;-53
2022/09/25 08:04:30;;;;;;;39.38;12.63;;;;;;;16.72;100.00;97492.00;4941108;29;20036;-54
2022/09/25 08:06:59;;;;;;;42.33;13.18;;;;;;;16.58;100.00;97496.50;4941798;28;20043;-54
2022/09/25 08:09:24;;;;;;;42.50;12.98;;;;;;;16.10;100.00;97509.63;4941893;29;20515;-56
2022/09/25 08:11:50;;;;;;;43.90;13.60;;;;;;;15.37;100.00;97508.50;4941578;28;20035;-55
2022/09/25 08:14:17;;;;;;;37.40;12.65;;;;;;;15.49;100.00;97506.81;4938347;29;20031;-54
2022/09/25 08:16:43;;;;;;;55.75;13.73;;;;;;;15.80;100.00;97505.56;4940699;28;20138;-55
2022/09/25 08:19:10;;;;;;;51.15;14.02;;;;;;;16.07;100.00;97511.63;4938007;29;20411;-56
2022/09/25 08:21:35;;;;;;;32.28;11.65;;;;;;;16.68;100.00;97507.16;4938706;28;20094;-54
2022/09/25 08:24:01;;;;;;;34.72;12.38;;;;;;;15.91;100.00;97510.06;4940610;29;20019;-55
2022/09/25 08:26:30;;;;;;;38.00;11.85;;;;;;;16.19;100.00;97506.34;4942751;28;20753;-54
2022/09/25 08:28:56;;;;;;;38.95;12.43;;;;;;;16.38;100.00;97495.31;4942286;28;20034;-53
2022/09/25 08:31:22;;;;;;;35.83;11.23;;;;;;;16.95;100.00;97495.59;4941068;28;20055;-54
2022/09/25 08:33:49;;;;;;;43.10;12.27;;;;;;;16.43;100.00;97499.38;4943415;29;20617;-54
2022/09/25 08:36:15;;;;;;;43.00;12.40;;;;;;;16.94;100.00;97507.06;4942363;28;20624;-53
2022/09/25 08:38:41;;;;;;;36.05;11.63;;;;;;;16.91;100.00;97497.59;4941005;29;20398;-56
2022/09/25 08:41:21;;;;;;;35.05;11.52;;;;;;;17.43;100.00;97487.53;4941684;28;20509;-54
2022/09/25 08:43:56;;;;;;;31.83;11.27;;;;;;;16.84;100.00;97485.03;4940459;29;20027;-55
2022/09/25 08:49:29;;;;;;;41.08;11.85;;;;;;;18.13;100.00;97475.06;4940929;29;20156;-54
2022/09/25 08:52:01;;;;;;;35.05;11.05;;;;;;;17.43;100.00;97471.72;4941849;28;20524;-53
2022/09/25 08:54:30;;;;;;;32.03;11.40;;;;;;;17.28;100.00;97475.53;4939163;28;20102;-53
2022/09/25 08:57:00;;;;;;;36.17;11.55;;;;;;;17.44;100.00;97464.63;4939598;28;20370;-54
2022/09/25 08:59:43;;;;;;;39.83;10.98;;;;;;;17.14;100.00;97482.69;4942041;29;20023;-55
2022/09/25 09:02:16;;;;;;;34.95;11.30;;;;;;;17.46;100.00;97468.84;4940135;28;20269;-57
2022/09/25 09:04:50;;;;;;;35.67;11.48;;;;;;;17.50;100.00;97467.66;4942069;29;20035;-53
2022/09/25 09:07:37;;;;;;;32.22;10.50;;;;;;;17.96;100.00;97467.63;4941619;28;20035;-55
2022/09/25 09:10:26;;;;;;;28.25;10.57;;;;;;;17.27;100.00;97471.22;4941981;28;20023;-53
2022/09/25 09:13:00;;;;;;;87.80;16.60;;;;;;;17.61;100.00;97468.59;4930126;28;20139;-56
2022/09/25 09:15:34;;;;;;;46.05;12.90;;;;;;;17.96;100.00;97462.38;4928921;28;20047;-54
2022/09/25 09:18:13;;;;;;;47.08;12.52;;;;;;;18.26;100.00;97454.63;4934568;28;20020;-57
2022/09/25 09:20:51;;;;;;;36.05;11.63;;;;;;;17.61;100.00;97452.78;4934936;28;20094;-54
2022/09/25 09:23:19;;;;;;;46.42;12.88;;;;;;;18.17;100.00;97455.38;4939554;29;20037;-55
2022/09/25 09:25:58;;;;;;;49.67;13.18;;;;;;;18.78;100.00;97448.66;4937998;28;20042;-58
2022/09/25 09:28:48;;;;;;;33.58;10.82;;;;;;;18.72;100.00;97446.56;4936125;28;20117;-55
2022/09/25 09:31:24;;;;;;;30.83;10.32;;;;;;;18.40;100.00;97447.41;4934462;28;20639;-55
2022/09/25 09:34:01;;;;;;;42.45;11.65;;;;;;;18.55;100.00;97454.06;4938701;29;20134;-54
2022/09/25 09:36:37;;;;;;;41.47;11.32;;;;;;;18.63;100.00;97451.63;4934103;28;20047;-56
2022/09/25 09:39:28;;;;;;;51.88;11.45;;;;;;;18.54;100.00;97446.25;4934065;29;20023;-56
2022/09/25 09:42:17;;;;;;;29.60;10.60;;;;;;;17.41;100.00;97446.44;4936788;28;20091;-56
2022/09/25 09:44:57;;;;;;;40.15;10.93;;;;;;;18.13;100.00;97453.13;4936105;29;20027;-56
2022/09/25 09:47:37;;;;;;;45.33;11.93;;;;;;;17.56;100.00;97449.69;4934839;28;20043;-55
2022/09/25 09:50:17;;;;;;;30.15;9.73;;;;;;;18.13;100.00;97448.66;4937715;29;20112;-55
2022/09/25 09:52:44;;;;;;;43.88;10.60;;;;;;;18.79;100.00;97445.91;4937770;28;20035;-55
2022/09/25 09:55:12;;;;;;;47.28;10.73;;;;;;;18.64;100.00;97437.47;4936444;28;20034;-54
2022/09/25 09:57:44;;;;;;;45.38;11.27;;;;;;;19.18;100.00;97435.59;4936469;28;20490;-55
2022/09/25 10:00:15;;;;;;;35.67;10.50;;;;;;;19.09;100.00;97430.28;4933273;28;20032;-55
2022/09/25 10:02:48;;;;;;;33.35;10.57;;;;;;;19.44;100.00;97425.44;4935159;29;20034;-56
2022/09/25 10:05:35;;;;;;;45.13;10.82;;;;;;;18.61;100.00;97426.31;4932605;28;20023;-57
2022/09/25 10:08:00;;;;;;;36.88;11.05;;;;;;;19.80;100.00;97425.88;4933620;29;20027;-59
2022/09/25 10:10:37;;;;;;;40.10;10.90;;;;;;;18.57;100.00;97420.44;4934440;28;20041;-57
2022/09/25 10:13:10;;;;;;;36.67;9.65;;;;;;;19.77;100.00;97401.50;4934266;28;20031;-55
2022/09/25 10:15:43;;;;;;;35.83;9.70;;;;;;;18.66;100.00;97395.91;4934483;28;20035;-54
2022/09/25 10:18:10;;;;;;;32.47;8.70;;;;;;;19.05;100.00;97403.28;4934832;29;20031;-55
2022/09/25 10:20:41;;;;;;;39.63;10.40;;;;;;;18.85;100.00;97397.03;4936995;28;20080;-54
2022/09/25 10:23:23;;;;;;;40.22;10.60;;;;;;;19.39;100.00;97393.28;4935930;28;20667;-56
2022/09/25 10:25:49;;;;;;;33.83;9.82;;;;;;;18.37;100.00;97393.03;4933865;28;20909;-56
2022/09/25 10:28:26;;;;;;;26.13;8.30;;;;;;;19.56;100.00;97394.44;4934005;28;20019;-55
2022/09/25 10:30:53;;;;;;;45.45;10.70;;;;;;;19.03;100.00;97400.75;4934304;28;20032;-55
2022/09/25 10:33:26;;;;;;;44.08;10.60;;;;;;;18.96;100.00;97402.22;4932964;28;20155;-54
2022/09/25 10:35:53;;;;;;;31.85;9.05;;;;;;;18.97;100.00;97406.56;4931242;28;20043;-54
2022/09/25 10:38:38;;;;;;;23.67;7.65;;;;;;;19.45;100.00;97400.69;4934414;29;20150;-55
2022/09/25 10:41:06;;;;;;;37.40;8.93;;;;;;;19.97;100.00;97394.44;4935155;28;20031;-55
2022/09/25 10:43:31;;;;;;;32.45;8.23;;;;;;;19.42;100.00;97400.94;4936246;28;20031;-55
2022/09/25 10:46:14;;;;;;;33.17;8.07;;;;;;;19.87;100.00;97391.78;4932367;28;20106;-55
2022/09/25 10:51:26;;;;;;;25.40;7.50;;;;;;;20.00;100.00;97399.47;4934706;28;20129;-55
2022/09/25 10:54:09;;;;;;;27.77;7.88;;;;;;;20.19;100.00;97386.25;4934481;28;20142;-55
2022/09/25 10:56:37;;;;;;;38.88;9.00;;;;;;;20.10;100.00;97394.19;4935948;28;20130;-56
2022/09/25 10:59:13;;;;;;;40.58;8.38;;;;;;;21.28;100.00;97383.31;4935086;29;20030;-58
2022/09/25 11:01:41;;;;;;;41.25;8.07;;;;;;;21.88;100.00;97382.09;4933053;28;21045;-55
2022/09/25 11:04:28;;;;;;;41.00;8.38;;;;;;;20.80;100.00;97381.66;4933406;29;20062;-56
2022/09/25 11:07:00;;;;;;;31.88;7.35;;;;;;;21.18;100.00;97379.88;4931552;28;20039;-56
2022/09/25 11:09:27;;;;;;;;;;;;;;;21.55;100.00;97374.59;4930495;28;20027;-57
2022/09/25 11:12:14;;;;;;;35.30;8.15;;;;;;;20.54;100.00;97370.78;4929945;28;19926;-55
2022/09/25 11:14:54;;;;;;;30.83;7.80;;;;;;;19.29;100.00;97379.16;4932746;29;20030;-55
2022/09/25 11:17:37;;;;;;;43.90;8.68;;;;;;;20.39;100.00;97378.31;4934012;28;20047;-55
2022/09/25 11:20:30;;;;;;;41.28;8.80;;;;;;;19.83;100.00;97372.69;4934634;28;20028;-56
2022/09/25 11:23:14;;;;;;;37.63;7.85;;;;;;;20.22;100.00;97378.03;4933630;29;20098;-57
2022/09/25 11:25:52;;;;;;;32.08;7.30;;;;;;;20.45;100.00;97372.44;4937781;28;20059;-57
2022/09/25 11:28:53;;;;;;;38.55;7.32;;;;;;;19.85;100.00;97369.94;4936329;29;20031;-56
2022/09/25 11:31:42;;;;;;;40.38;7.50;;;;;;;19.73;100.00;97365.72;4936719;28;20062;-57
2022/09/25 11:34:18;;;;;;;42.70;7.97;;;;;;;19.67;100.00;97364.41;4939361;28;20046;-57
2022/09/25 11:36:49;;;;;;;46.22;8.50;;;;;;;19.52;100.00;97373.69;4937872;28;20269;-58
2022/09/25 11:42:40;;;;;;;42.35;8.18;;;;;;;20.56;100.00;97358.22;4957888;28;20138;-56
2022/09/25 11:45:21;;;;;;;35.40;7.00;;;;;;;19.61;100.00;97357.00;4936112;28;20512;-56
2022/09/25 11:47:53;;;;;;;42.30;8.27;;;;;;;20.15;100.00;97361.03;4934920;28;20143;-55